sensor_id;sensor_type;location;lat;lon;timestamp;temperature;humidity
46730;DHT22;32476;50.002;11.854;2023-02-05T00:01:35;-5.20;99.90
46730;DHT22;32476;50.002;11.854;2023-02-05T00:04:01;-5.20;99.90
46730;DHT22;32476;50.002;11.854;2023-02-05T00:06:27;-5.20;99.90
46730;DHT22;32476;50.002;11.854;2023-02-05T00:08:56;-5.20;99.90
46730;DHT22;32476;50.002;11.854;2023-02-05T00:11:23;-5.20;99.90
46730;DHT22;32476;50.002;11.854;2023-02-05T00:13:49;-5.20;99.90
46730;DHT22;32476;50.002;11.854;2023-02-05T00:16:19;-5.30;99.90
46730;DHT22;32476;50.002;11.854;2023-02-05T00:18:46;-5.40;99.90
46730;DHT22;32476;50.002;11.854;2023-02-05T00:21:13;-5.40;99.90
46730;DHT22;32476;50.002;11.854;2023-02-05T00:23:43;-5.40;99.90
46730;DHT22;32476;50.002;11.854;2023-02-05T00:26:09;-5.40;99.90
46730;DHT22;32476;50.002;11.854;2023-02-05T00:28:36;-5.30;99.90
46730;DHT22;32476;50.002;11.854;2023-02-05T00:31:12;-5.30;99.90
46730;DHT22;32476;50.002;11.854;2023-02-05T00:33:40;-5.40;99.90
46730;DHT22;32476;50.002;11.854;2023-02-05T00:36:08;-5.40;99.90
46730;DHT22;32476;50.002;11.854;2023-02-05T00:38:35;-5.30;99.90
46730;DHT22;32476;50.002;11.854;2023-02-05T00:41:01;-5.30;99.90
46730;DHT22;32476;50.002;11.854;2023-02-05T00:43:29;-5.30;99.90
46730;DHT22;32476;50.002;11.854;2023-02-05T00:45:55;-5.30;99.90
46730;DHT22;32476;50.002;11.854;2023-02-05T00:48:22;-5.50;99.90
46730;DHT22;32476;50.002;11.854;2023-02-05T00:50:50;-5.60;99.90
46730;DHT22;32476;50.002;11.854;2023-02-05T00:53:16;-5.60;99.90
46730;DHT22;32476;50.002;11.854;2023-02-05T00:55:43;-5.70;99.90
46730;DHT22;32476;50.002;11.854;2023-02-05T00:58:10;-5.70;99.90
46730;DHT22;32476;50.002;11.854;2023-02-05T01:00:37;-5.70;99.90
46730;DHT22;32476;50.002;11.854;2023-02-05T01:03:03;-5.60;99.90
46730;DHT22;32476;50.002;11.854;2023-02-05T01:05:32;-5.60;99.90
46730;DHT22;32476;50.002;11.854;2023-02-05T01:07:59;-5.60;99.90
46730;DHT22;32476;50.002;11.854;2023-02-05T01:10:25;-5.60;99.90
46730;DHT22;32476;50.002;11.854;2023-02-05T01:12:53;-5.50;99.90
46730;DHT22;32476;50.002;11.854;2023-02-05T01:15:19;-5.50;99.90
46730;DHT22;32476;50.002;11.854;2023-02-05T01:17:46;-5.50;99.90
46730;DHT22;32476;50.002;11.854;2023-02-05T01:20:14;-5.50;99.90
46730;DHT22;32476;50.002;11.854;2023-02-05T01:22:41;-5.40;99.90
46730;DHT22;32476;50.002;11.854;2023-02-05T01:25:08;-5.40;99.90
46730;DHT22;32476;50.002;11.854;2023-02-05T01:27:36;-5.40;99.90
46730;DHT22;32476;50.002;11.854;2023-02-05T01:30:04;-5.50;99.90
46730;DHT22;32476;50.002;11.854;2023-02-05T01:32:31;-5.60;99.90
46730;DHT22;32476;50.002;11.854;2023-02-05T01:34:58;-5.70;99.90
46730;DHT22;32476;50.002;11.854;2023-02-05T01:37:24;-5.90;99.90
46730;DHT22;32476;50.002;11.854;2023-02-05T01:39:50;-6.10;99.90
46730;DHT22;32476;50.002;11.854;2023-02-05T01:42:21;-6.20;99.90
46730;DHT22;32476;50.002;11.854;2023-02-05T01:45:31;-6.20;99.90
46730;DHT22;32476;50.002;11.854;2023-02-05T01:48:07;-6.10;99.90
46730;DHT22;32476;50.002;11.854;2023-02-05T01:51:12;-6.10;99.90
46730;DHT22;32476;50.002;11.854;2023-02-05T01:53:42;-6.00;99.90
46730;DHT22;32476;50.002;11.854;2023-02-05T01:56:13;-6.00;99.90
46730;DHT22;32476;50.002;11.854;2023-02-05T01:59:25;-6.10;99.90
46730;DHT22;32476;50.002;11.854;2023-02-05T02:01:54;-5.90;99.90
46730;DHT22;32476;50.002;11.854;2023-02-05T02:04:40;-5.90;99.90
46730;DHT22;32476;50.002;11.854;2023-02-05T02:07:13;-6.00;99.90
46730;DHT22;32476;50.002;11.854;2023-02-05T02:09:44;-5.90;99.90
46730;DHT22;32476;50.002;11.854;2023-02-05T02:12:14;-6.10;99.90
46730;DHT22;32476;50.002;11.854;2023-02-05T02:14:48;-6.10;99.90
46730;DHT22;32476;50.002;11.854;2023-02-05T02:17:16;-6.20;99.90
46730;DHT22;32476;50.002;11.854;2023-02-05T02:19:51;-6.20;99.90
46730;DHT22;32476;50.002;11.854;2023-02-05T02:31:31;-6.10;99.90
46730;DHT22;32476;50.002;11.854;2023-02-05T02:34:19;-6.20;99.90
46730;DHT22;32476;50.002;11.854;2023-02-05T02:36:58;-6.20;99.90
46730;DHT22;32476;50.002;11.854;2023-02-05T02:39:41;-6.30;99.90
46730;DHT22;32476;50.002;11.854;2023-02-05T02:42:15;-6.40;99.90
46730;DHT22;32476;50.002;11.854;2023-02-05T02:45:00;-6.50;99.90
46730;DHT22;32476;50.002;11.854;2023-02-05T02:47:39;-6.40;99.90
46730;DHT22;32476;50.002;11.854;2023-02-05T02:50:16;-6.40;99.90
46730;DHT22;32476;50.002;11.854;2023-02-05T02:52:48;-6.30;99.90
46730;DHT22;32476;50.002;11.854;2023-02-05T02:55:16;-6.30;99.90
46730;DHT22;32476;50.002;11.854;2023-02-05T02:57:46;-6.30;99.90
46730;DHT22;32476;50.002;11.854;2023-02-05T03:00:19;-6.40;99.90
46730;DHT22;32476;50.002;11.854;2023-02-05T03:02:49;-6.50;99.90
46730;DHT22;32476;50.002;11.854;2023-02-05T03:05:21;-6.60;99.90
46730;DHT22;32476;50.002;11.854;2023-02-05T03:07:51;-6.70;99.90
46730;DHT22;32476;50.002;11.854;2023-02-05T03:10:43;-6.80;99.90
46730;DHT22;32476;50.002;11.854;2023-02-05T03:13:24;-6.80;99.90
46730;DHT22;32476;50.002;11.854;2023-02-05T03:15:51;-6.70;99.90
46730;DHT22;32476;50.002;11.854;2023-02-05T03:18:18;-6.70;99.90
46730;DHT22;32476;50.002;11.854;2023-02-05T03:20:53;-6.40;99.90
46730;DHT22;32476;50.002;11.854;2023-02-05T03:23:25;-6.30;99.90
46730;DHT22;32476;50.002;11.854;2023-02-05T03:25:52;-6.30;99.90
46730;DHT22;32476;50.002;11.854;2023-02-05T03:28:18;-6.20;99.90
46730;DHT22;32476;50.002;11.854;2023-02-05T03:31:07;-6.20;99.90
46730;DHT22;32476;50.002;11.854;2023-02-05T03:34:16;-6.20;99.90
46730;DHT22;32476;50.002;11.854;2023-02-05T03:46:14;-6.10;99.90
46730;DHT22;32476;50.002;11.854;2023-02-05T03:59:42;-6.00;99.90
46730;DHT22;32476;50.002;11.854;2023-02-05T04:02:09;-6.00;99.90
46730;DHT22;32476;50.002;11.854;2023-02-05T04:04:35;-5.90;99.90
46730;DHT22;32476;50.002;11.854;2023-02-05T04:07:02;-5.90;99.90
46730;DHT22;32476;50.002;11.854;2023-02-05T04:09:29;-5.90;99.90
46730;DHT22;32476;50.002;11.854;2023-02-05T04:11:55;-5.90;99.90
46730;DHT22;32476;50.002;11.854;2023-02-05T04:14:23;-5.90;99.90
46730;DHT22;32476;50.002;11.854;2023-02-05T04:16:48;-6.00;99.90
46730;DHT22;32476;50.002;11.854;2023-02-05T04:19:14;-5.90;99.90
46730;DHT22;32476;50.002;11.854;2023-02-05T04:21:42;-5.90;99.90
46730;DHT22;32476;50.002;11.854;2023-02-05T04:24:10;-5.90;99.90
46730;DHT22;32476;50.002;11.854;2023-02-05T04:26:36;-6.10;99.90
46730;DHT22;32476;50.002;11.854;2023-02-05T04:29:03;-6.00;99.90
46730;DHT22;32476;50.002;11.854;2023-02-05T04:31:29;-6.10;99.90
46730;DHT22;32476;50.002;11.854;2023-02-05T04:33:55;-6.00;99.90
46730;DHT22;32476;50.002;11.854;2023-02-05T04:36:23;-5.90;99.90
46730;DHT22;32476;50.002;11.854;2023-02-05T04:38:49;-5.90;99.90
46730;DHT22;32476;50.002;11.854;2023-02-05T04:41:14;-6.00;99.90
46730;DHT22;32476;50.002;11.854;2023-02-05T04:43:42;-6.10;99.90
46730;DHT22;32476;50.002;11.854;2023-02-05T04:46:09;-6.10;99.90
46730;DHT22;32476;50.002;11.854;2023-02-05T04:48:36;-6.20;99.90
46730;DHT22;32476;50.002;11.854;2023-02-05T04:51:08;-6.20;99.90
46730;DHT22;32476;50.002;11.854;2023-02-05T04:53:36;-6.00;99.90
46730;DHT22;32476;50.002;11.854;2023-02-05T04:58:32;-6.00;99.90
46730;DHT22;32476;50.002;11.854;2023-02-05T05:00:58;-6.10;99.90
46730;DHT22;32476;50.002;11.854;2023-02-05T05:03:26;-6.10;99.90
46730;DHT22;32476;50.002;11.854;2023-02-05T05:05:52;-6.20;99.90
46730;DHT22;32476;50.002;11.854;2023-02-05T05:08:18;-6.30;99.90
46730;DHT22;32476;50.002;11.854;2023-02-05T05:10:46;-6.40;99.90
46730;DHT22;32476;50.002;11.854;2023-02-05T05:13:12;-6.50;99.90
46730;DHT22;32476;50.002;11.854;2023-02-05T05:15:38;-6.60;99.90
46730;DHT22;32476;50.002;11.854;2023-02-05T05:18:06;-6.60;99.90
46730;DHT22;32476;50.002;11.854;2023-02-05T05:20:32;-6.60;99.90
46730;DHT22;32476;50.002;11.854;2023-02-05T05:22:59;-6.70;99.90
46730;DHT22;32476;50.002;11.854;2023-02-05T05:25:26;-6.70;99.90
46730;DHT22;32476;50.002;11.854;2023-02-05T05:27:55;-6.70;99.90
46730;DHT22;32476;50.002;11.854;2023-02-05T05:30:21;-6.70;99.90
46730;DHT22;32476;50.002;11.854;2023-02-05T05:32:49;-6.70;99.90
46730;DHT22;32476;50.002;11.854;2023-02-05T05:35:15;-6.80;99.90
46730;DHT22;32476;50.002;11.854;2023-02-05T05:37:41;-6.70;99.90
46730;DHT22;32476;50.002;11.854;2023-02-05T05:40:10;-6.80;99.90
46730;DHT22;32476;50.002;11.854;2023-02-05T05:42:55;-6.70;99.90
46730;DHT22;32476;50.002;11.854;2023-02-05T05:45:41;-6.70;99.90
46730;DHT22;32476;50.002;11.854;2023-02-05T05:48:07;-6.80;99.90
46730;DHT22;32476;50.002;11.854;2023-02-05T05:50:33;-6.80;99.90
46730;DHT22;32476;50.002;11.854;2023-02-05T05:53:01;-6.90;99.90
46730;DHT22;32476;50.002;11.854;2023-02-05T05:55:27;-7.00;99.90
46730;DHT22;32476;50.002;11.854;2023-02-05T05:57:53;-7.00;99.90
46730;DHT22;32476;50.002;11.854;2023-02-05T06:00:20;-7.00;99.90
46730;DHT22;32476;50.002;11.854;2023-02-05T06:02:46;-6.90;99.90
46730;DHT22;32476;50.002;11.854;2023-02-05T06:05:12;-6.90;99.90
46730;DHT22;32476;50.002;11.854;2023-02-05T06:07:40;-6.80;99.90
46730;DHT22;32476;50.002;11.854;2023-02-05T06:10:06;-6.80;99.90
46730;DHT22;32476;50.002;11.854;2023-02-05T06:12:32;-6.90;99.90
46730;DHT22;32476;50.002;11.854;2023-02-05T06:14:59;-6.90;99.90
46730;DHT22;32476;50.002;11.854;2023-02-05T06:17:25;-6.90;99.90
46730;DHT22;32476;50.002;11.854;2023-02-05T06:19:52;-6.90;99.90
46730;DHT22;32476;50.002;11.854;2023-02-05T06:22:19;-6.90;99.90
46730;DHT22;32476;50.002;11.854;2023-02-05T06:24:45;-6.80;99.90
46730;DHT22;32476;50.002;11.854;2023-02-05T06:27:11;-6.90;99.90
46730;DHT22;32476;50.002;11.854;2023-02-05T06:29:39;-6.90;99.90
46730;DHT22;32476;50.002;11.854;2023-02-05T06:32:05;-6.80;99.90
46730;DHT22;32476;50.002;11.854;2023-02-05T06:34:31;-6.90;99.90
46730;DHT22;32476;50.002;11.854;2023-02-05T06:36:58;-6.90;99.90
46730;DHT22;32476;50.002;11.854;2023-02-05T06:39:24;-7.00;99.90
46730;DHT22;32476;50.002;11.854;2023-02-05T06:41:50;-7.10;99.90
46730;DHT22;32476;50.002;11.854;2023-02-05T06:44:17;-7.10;99.90
46730;DHT22;32476;50.002;11.854;2023-02-05T06:46:43;-7.10;99.90
46730;DHT22;32476;50.002;11.854;2023-02-05T06:49:09;-7.20;99.90
46730;DHT22;32476;50.002;11.854;2023-02-05T06:51:37;-7.20;99.90
46730;DHT22;32476;50.002;11.854;2023-02-05T06:54:03;-7.20;99.90
46730;DHT22;32476;50.002;11.854;2023-02-05T06:56:28;-7.10;99.90
46730;DHT22;32476;50.002;11.854;2023-02-05T06:58:56;-7.20;99.90
46730;DHT22;32476;50.002;11.854;2023-02-05T07:01:22;-7.10;99.90
46730;DHT22;32476;50.002;11.854;2023-02-05T07:03:48;-6.90;99.90
46730;DHT22;32476;50.002;11.854;2023-02-05T07:06:18;-6.80;99.90
46730;DHT22;32476;50.002;11.854;2023-02-05T07:08:44;-6.80;99.90
46730;DHT22;32476;50.002;11.854;2023-02-05T07:11:12;-6.80;99.90
46730;DHT22;32476;50.002;11.854;2023-02-05T07:13:40;-6.70;99.90
46730;DHT22;32476;50.002;11.854;2023-02-05T07:16:06;-6.70;99.90
46730;DHT22;32476;50.002;11.854;2023-02-05T07:18:33;-6.80;99.90
46730;DHT22;32476;50.002;11.854;2023-02-05T07:21:06;-6.80;99.90
46730;DHT22;32476;50.002;11.854;2023-02-05T07:23:34;-6.80;99.90
46730;DHT22;32476;50.002;11.854;2023-02-05T07:26:09;-6.80;99.90
46730;DHT22;32476;50.002;11.854;2023-02-05T07:28:37;-6.60;99.90
46730;DHT22;32476;50.002;11.854;2023-02-05T07:31:05;-6.50;99.90
46730;DHT22;32476;50.002;11.854;2023-02-05T07:33:34;-6.40;99.90
46730;DHT22;32476;50.002;11.854;2023-02-05T07:36:03;-6.30;99.90
46730;DHT22;32476;50.002;11.854;2023-02-05T07:38:32;-6.20;99.90
46730;DHT22;32476;50.002;11.854;2023-02-05T07:40:58;-6.10;99.90
46730;DHT22;32476;50.002;11.854;2023-02-05T07:43:27;-6.00;99.90
46730;DHT22;32476;50.002;11.854;2023-02-05T07:45:56;-5.90;99.90
46730;DHT22;32476;50.002;11.854;2023-02-05T07:48:25;-5.90;99.90
46730;DHT22;32476;50.002;11.854;2023-02-05T07:50:51;-5.90;99.90
46730;DHT22;32476;50.002;11.854;2023-02-05T07:53:19;-5.80;99.90
46730;DHT22;32476;50.002;11.854;2023-02-05T07:55:46;-5.60;99.90
46730;DHT22;32476;50.002;11.854;2023-02-05T07:58:12;-5.40;99.90
46730;DHT22;32476;50.002;11.854;2023-02-05T08:00:40;-5.50;99.90
46730;DHT22;32476;50.002;11.854;2023-02-05T08:03:06;-5.50;99.90
46730;DHT22;32476;50.002;11.854;2023-02-05T08:05:33;-5.40;99.90
46730;DHT22;32476;50.002;11.854;2023-02-05T08:08:00;-5.40;99.90
46730;DHT22;32476;50.002;11.854;2023-02-05T08:10:26;-5.40;99.90
46730;DHT22;32476;50.002;11.854;2023-02-05T08:12:53;-5.20;99.90
46730;DHT22;32476;50.002;11.854;2023-02-05T08:15:20;-5.10;99.90
46730;DHT22;32476;50.002;11.854;2023-02-05T08:17:46;-4.90;99.90
46730;DHT22;32476;50.002;11.854;2023-02-05T08:20:12;-4.70;99.90
46730;DHT22;32476;50.002;11.854;2023-02-05T08:22:41;-4.60;99.90
46730;DHT22;32476;50.002;11.854;2023-02-05T08:25:12;-4.40;99.90
46730;DHT22;32476;50.002;11.854;2023-02-05T08:27:40;-4.20;99.90
46730;DHT22;32476;50.002;11.854;2023-02-05T08:30:11;-4.20;99.90
46730;DHT22;32476;50.002;11.854;2023-02-05T08:32:39;-4.00;99.90
46730;DHT22;32476;50.002;11.854;2023-02-05T08:35:05;-3.80;99.90
46730;DHT22;32476;50.002;11.854;2023-02-05T08:45:29;-2.80;99.90
46730;DHT22;32476;50.002;11.854;2023-02-05T08:52:04;-2.60;99.90
46730;DHT22;32476;50.002;11.854;2023-02-05T08:54:30;-2.50;99.90
46730;DHT22;32476;50.002;11.854;2023-02-05T08:57:14;-2.50;99.90
46730;DHT22;32476;50.002;11.854;2023-02-05T09:00:09;-2.40;99.90
46730;DHT22;32476;50.002;11.854;2023-02-05T09:02:36;-2.40;99.90
46730;DHT22;32476;50.002;11.854;2023-02-05T09:05:05;-2.30;99.90
46730;DHT22;32476;50.002;11.854;2023-02-05T09:07:32;-2.30;99.90
46730;DHT22;32476;50.002;11.854;2023-02-05T09:09:58;-2.20;99.90
46730;DHT22;32476;50.002;11.854;2023-02-05T09:12:26;-2.20;99.90
46730;DHT22;32476;50.002;11.854;2023-02-05T09:14:52;-2.10;99.90
46730;DHT22;32476;50.002;11.854;2023-02-05T09:17:18;-2.10;99.90
46730;DHT22;32476;50.002;11.854;2023-02-05T09:19:45;-2.00;99.90
46730;DHT22;32476;50.002;11.854;2023-02-05T09:22:11;-2.00;99.90
46730;DHT22;32476;50.002;11.854;2023-02-05T09:28:32;-1.90;99.90
46730;DHT22;32476;50.002;11.854;2023-02-05T09:30:57;-1.80;99.90
46730;DHT22;32476;50.002;11.854;2023-02-05T09:36:46;-1.60;99.90
46730;DHT22;32476;50.002;11.854;2023-02-05T09:39:12;-1.50;99.90
46730;DHT22;32476;50.002;11.854;2023-02-05T09:45:14;-1.30;99.90
46730;DHT22;32476;50.002;11.854;2023-02-05T09:47:57;-1.20;99.90
46730;DHT22;32476;50.002;11.854;2023-02-05T09:50:32;-1.10;99.90
46730;DHT22;32476;50.002;11.854;2023-02-05T09:53:01;-1.00;99.90
46730;DHT22;32476;50.002;11.854;2023-02-05T09:55:36;-0.90;99.90
46730;DHT22;32476;50.002;11.854;2023-02-05T09:58:34;-1.00;99.90
46730;DHT22;32476;50.002;11.854;2023-02-05T10:01:08;-1.00;99.90
46730;DHT22;32476;50.002;11.854;2023-02-05T10:04:00;-0.90;99.90
46730;DHT22;32476;50.002;11.854;2023-02-05T10:21:06;-0.70;99.90
46730;DHT22;32476;50.002;11.854;2023-02-05T10:33:04;-0.40;99.90
46730;DHT22;32476;50.002;11.854;2023-02-05T10:35:50;-0.30;99.90
46730;DHT22;32476;50.002;11.854;2023-02-05T10:38:23;-0.50;99.90
46730;DHT22;32476;50.002;11.854;2023-02-05T10:40:57;-0.40;99.90
46730;DHT22;32476;50.002;11.854;2023-02-05T10:43:37;-0.30;99.90
46730;DHT22;32476;50.002;11.854;2023-02-05T10:46:12;-0.30;99.90
46730;DHT22;32476;50.002;11.854;2023-02-05T10:51:26;-0.20;99.90
46730;DHT22;32476;50.002;11.854;2023-02-05T10:53:59;-0.20;99.90
46730;DHT22;32476;50.002;11.854;2023-02-05T10:56:27;0.00;99.90
46730;DHT22;32476;50.002;11.854;2023-02-05T10:58:54;0.00;99.90
46730;DHT22;32476;50.002;11.854;2023-02-05T11:01:22;0.00;99.90
46730;DHT22;32476;50.002;11.854;2023-02-05T11:04:12;0.10;99.90
46730;DHT22;32476;50.002;11.854;2023-02-05T11:06:43;0.20;99.90
46730;DHT22;32476;50.002;11.854;2023-02-05T11:11:55;0.50;99.90
46730;DHT22;32476;50.002;11.854;2023-02-05T11:14:36;0.60;99.90
46730;DHT22;32476;50.002;11.854;2023-02-05T11:17:22;0.70;99.90
46730;DHT22;32476;50.002;11.854;2023-02-05T11:20:00;0.80;99.90
46730;DHT22;32476;50.002;11.854;2023-02-05T11:22:32;0.80;99.90
46730;DHT22;32476;50.002;11.854;2023-02-05T11:25:19;0.90;99.90
46730;DHT22;32476;50.002;11.854;2023-02-05T11:27:59;0.60;99.90
46730;DHT22;32476;50.002;11.854;2023-02-05T11:30:32;0.70;99.90
46730;DHT22;32476;50.002;11.854;2023-02-05T11:35:50;0.80;99.90
46730;DHT22;32476;50.002;11.854;2023-02-05T11:41:01;0.70;99.90
46730;DHT22;32476;50.002;11.854;2023-02-05T11:43:32;0.80;99.90
46730;DHT22;32476;50.002;11.854;2023-02-05T11:46:04;0.70;99.90
46730;DHT22;32476;50.002;11.854;2023-02-05T11:51:39;0.70;99.90
46730;DHT22;32476;50.002;11.854;2023-02-05T11:54:30;0.60;99.90
46730;DHT22;32476;50.002;11.854;2023-02-05T11:57:00;0.50;99.90
46730;DHT22;32476;50.002;11.854;2023-02-05T11:59:26;0.40;99.90
46730;DHT22;32476;50.002;11.854;2023-02-05T12:01:52;0.40;99.90
46730;DHT22;32476;50.002;11.854;2023-02-05T12:04:20;0.40;99.90
46730;DHT22;32476;50.002;11.854;2023-02-05T12:06:56;0.50;99.90
46730;DHT22;32476;50.002;11.854;2023-02-05T12:09:28;0.40;99.90
46730;DHT22;32476;50.002;11.854;2023-02-05T12:12:12;0.40;99.90
46730;DHT22;32476;50.002;11.854;2023-02-05T12:15:18;0.40;99.90
46730;DHT22;32476;50.002;11.854;2023-02-05T12:21:04;0.40;99.90
46730;DHT22;32476;50.002;11.854;2023-02-05T12:24:01;0.40;99.90
46730;DHT22;32476;50.002;11.854;2023-02-05T12:26:36;0.40;99.90
46730;DHT22;32476;50.002;11.854;2023-02-05T12:31:55;0.30;99.90
46730;DHT22;32476;50.002;11.854;2023-02-05T12:46:37;0.10;99.90
46730;DHT22;32476;50.002;11.854;2023-02-05T12:52:39;0.00;99.90
46730;DHT22;32476;50.002;11.854;2023-02-05T12:59:23;0.10;99.90
46730;DHT22;32476;50.002;11.854;2023-02-05T13:05:16;0.10;99.90
46730;DHT22;32476;50.002;11.854;2023-02-05T13:07:58;0.20;99.90
46730;DHT22;32476;50.002;11.854;2023-02-05T13:10:44;0.30;99.90
46730;DHT22;32476;50.002;11.854;2023-02-05T13:13:24;0.30;99.90
46730;DHT22;32476;50.002;11.854;2023-02-05T13:16:10;0.40;99.90
46730;DHT22;32476;50.002;11.854;2023-02-05T13:18:48;0.30;99.90
46730;DHT22;32476;50.002;11.854;2023-02-05T13:21:23;0.30;99.90
46730;DHT22;32476;50.002;11.854;2023-02-05T13:24:37;0.30;99.90
46730;DHT22;32476;50.002;11.854;2023-02-05T13:27:30;0.40;99.90
46730;DHT22;32476;50.002;11.854;2023-02-05T13:30:33;0.40;99.90
46730;DHT22;32476;50.002;11.854;2023-02-05T13:33:06;0.60;99.90
46730;DHT22;32476;50.002;11.854;2023-02-05T13:42:22;0.40;99.90
46730;DHT22;32476;50.002;11.854;2023-02-05T13:45:19;0.30;99.90
46730;DHT22;32476;50.002;11.854;2023-02-05T13:51:35;0.40;99.90
46730;DHT22;32476;50.002;11.854;2023-02-05T13:54:28;0.50;99.90
46730;DHT22;32476;50.002;11.854;2023-02-05T13:59:54;0.50;99.90
46730;DHT22;32476;50.002;11.854;2023-02-05T14:02:41;0.50;99.90
46730;DHT22;32476;50.002;11.854;2023-02-05T14:05:10;0.40;99.90
46730;DHT22;32476;50.002;11.854;2023-02-05T14:07:44;0.30;99.90
46730;DHT22;32476;50.002;11.854;2023-02-05T14:10:26;0.20;99.90
46730;DHT22;32476;50.002;11.854;2023-02-05T14:15:52;0.30;99.90
46730;DHT22;32476;50.002;11.854;2023-02-05T14:26:51;0.10;99.90
46730;DHT22;32476;50.002;11.854;2023-02-05T14:29:43;0.10;99.90
46730;DHT22;32476;50.002;11.854;2023-02-05T14:35:01;0.20;99.90
46730;DHT22;32476;50.002;11.854;2023-02-05T14:37:54;0.10;99.90
46730;DHT22;32476;50.002;11.854;2023-02-05T14:40:30;0.20;99.90
46730;DHT22;32476;50.002;11.854;2023-02-05T14:43:26;0.20;99.90
46730;DHT22;32476;50.002;11.854;2023-02-05T14:46:01;0.10;99.90
46730;DHT22;32476;50.002;11.854;2023-02-05T14:48:36;0.10;99.90
46730;DHT22;32476;50.002;11.854;2023-02-05T14:51:25;0.20;99.90
46730;DHT22;32476;50.002;11.854;2023-02-05T14:54:03;0.10;99.90
46730;DHT22;32476;50.002;11.854;2023-02-05T14:57:17;0.10;99.90
46730;DHT22;32476;50.002;11.854;2023-02-05T14:59:58;0.10;99.90
46730;DHT22;32476;50.002;11.854;2023-02-05T15:05:54;-0.10;99.90
46730;DHT22;32476;50.002;11.854;2023-02-05T15:08:34;0.00;99.90
46730;DHT22;32476;50.002;11.854;2023-02-05T15:17:33;0.10;99.90
46730;DHT22;32476;50.002;11.854;2023-02-05T15:22:35;0.00;99.90
46730;DHT22;32476;50.002;11.854;2023-02-05T15:25:08;-0.10;99.90
46730;DHT22;32476;50.002;11.854;2023-02-05T15:27:45;-0.20;99.90
46730;DHT22;32476;50.002;11.854;2023-02-05T15:30:21;-0.20;99.90
46730;DHT22;32476;50.002;11.854;2023-02-05T15:33:00;-0.20;99.90
46730;DHT22;32476;50.002;11.854;2023-02-05T15:35:31;-0.20;99.90
46730;DHT22;32476;50.002;11.854;2023-02-05T15:42:42;-0.30;99.90
46730;DHT22;32476;50.002;11.854;2023-02-05T15:48:00;-0.40;99.90
46730;DHT22;32476;50.002;11.854;2023-02-05T15:50:29;-0.50;99.90
46730;DHT22;32476;50.002;11.854;2023-02-05T15:52:56;-0.60;99.90
46730;DHT22;32476;50.002;11.854;2023-02-05T15:55:23;-0.60;99.90
46730;DHT22;32476;50.002;11.854;2023-02-05T15:58:00;-0.70;99.90
46730;DHT22;32476;50.002;11.854;2023-02-05T16:00:30;-0.70;99.90
46730;DHT22;32476;50.002;11.854;2023-02-05T16:03:01;-0.70;99.90
46730;DHT22;32476;50.002;11.854;2023-02-05T16:05:30;-0.80;99.90
46730;DHT22;32476;50.002;11.854;2023-02-05T16:07:56;-0.80;99.90
46730;DHT22;32476;50.002;11.854;2023-02-05T16:10:27;-0.90;99.90
46730;DHT22;32476;50.002;11.854;2023-02-05T16:13:13;-1.00;99.90
46730;DHT22;32476;50.002;11.854;2023-02-05T16:16:03;-1.10;99.90
46730;DHT22;32476;50.002;11.854;2023-02-05T16:18:46;-1.20;99.90
46730;DHT22;32476;50.002;11.854;2023-02-05T16:21:32;-1.20;99.90
46730;DHT22;32476;50.002;11.854;2023-02-05T16:24:20;-1.30;99.90
46730;DHT22;32476;50.002;11.854;2023-02-05T16:29:35;-1.40;99.90
46730;DHT22;32476;50.002;11.854;2023-02-05T16:32:09;-1.50;99.90
46730;DHT22;32476;50.002;11.854;2023-02-05T16:34:44;-1.60;99.90
46730;DHT22;32476;50.002;11.854;2023-02-05T16:37:15;-1.70;99.90
46730;DHT22;32476;50.002;11.854;2023-02-05T16:39:45;-1.70;99.90
46730;DHT22;32476;50.002;11.854;2023-02-05T16:47:38;-2.00;99.90
46730;DHT22;32476;50.002;11.854;2023-02-05T16:50:36;-2.10;99.90
46730;DHT22;32476;50.002;11.854;2023-02-05T16:53:23;-2.10;99.90
46730;DHT22;32476;50.002;11.854;2023-02-05T16:55:56;-2.20;99.90
46730;DHT22;32476;50.002;11.854;2023-02-05T16:58:37;-2.30;99.90
46730;DHT22;32476;50.002;11.854;2023-02-05T17:01:08;-2.30;99.90
46730;DHT22;32476;50.002;11.854;2023-02-05T17:03:40;-2.40;99.90
46730;DHT22;32476;50.002;11.854;2023-02-05T17:06:12;-2.40;99.90
46730;DHT22;32476;50.002;11.854;2023-02-05T17:08:41;-2.50;99.90
46730;DHT22;32476;50.002;11.854;2023-02-05T17:11:36;-2.60;99.90
46730;DHT22;32476;50.002;11.854;2023-02-05T17:19:30;-2.90;99.90
46730;DHT22;32476;50.002;11.854;2023-02-05T17:24:45;-2.90;99.90
46730;DHT22;32476;50.002;11.854;2023-02-05T17:27:32;-3.00;99.90
46730;DHT22;32476;50.002;11.854;2023-02-05T17:30:05;-3.10;99.90
46730;DHT22;32476;50.002;11.854;2023-02-05T17:32:38;-3.10;99.90
46730;DHT22;32476;50.002;11.854;2023-02-05T17:35:12;-3.10;99.90
46730;DHT22;32476;50.002;11.854;2023-02-05T17:37:39;-3.20;99.90
46730;DHT22;32476;50.002;11.854;2023-02-05T17:40:07;-3.30;99.90
46730;DHT22;32476;50.002;11.854;2023-02-05T17:42:34;-3.30;99.90
46730;DHT22;32476;50.002;11.854;2023-02-05T17:45:00;-3.40;99.90
46730;DHT22;32476;50.002;11.854;2023-02-05T17:47:28;-3.40;99.90
46730;DHT22;32476;50.002;11.854;2023-02-05T17:49:53;-3.50;99.90
46730;DHT22;32476;50.002;11.854;2023-02-05T17:52:19;-3.50;99.90
46730;DHT22;32476;50.002;11.854;2023-02-05T17:54:47;-3.60;99.90
46730;DHT22;32476;50.002;11.854;2023-02-05T17:57:17;-3.70;99.90
46730;DHT22;32476;50.002;11.854;2023-02-05T17:59:47;-3.80;99.90
46730;DHT22;32476;50.002;11.854;2023-02-05T18:02:17;-3.80;99.90
46730;DHT22;32476;50.002;11.854;2023-02-05T18:04:45;-3.90;99.90
46730;DHT22;32476;50.002;11.854;2023-02-05T18:07:24;-3.90;99.90
46730;DHT22;32476;50.002;11.854;2023-02-05T18:09:56;-4.00;99.90
46730;DHT22;32476;50.002;11.854;2023-02-05T18:12:24;-4.10;99.90
46730;DHT22;32476;50.002;11.854;2023-02-05T18:14:50;-4.10;99.90
46730;DHT22;32476;50.002;11.854;2023-02-05T18:17:17;-4.20;99.90
46730;DHT22;32476;50.002;11.854;2023-02-05T18:19:44;-4.20;99.90
46730;DHT22;32476;50.002;11.854;2023-02-05T18:22:10;-4.20;99.90
46730;DHT22;32476;50.002;11.854;2023-02-05T18:24:38;-4.30;99.90
46730;DHT22;32476;50.002;11.854;2023-02-05T18:27:05;-4.40;99.90
46730;DHT22;32476;50.002;11.854;2023-02-05T18:29:38;-4.40;99.90
46730;DHT22;32476;50.002;11.854;2023-02-05T18:32:05;-4.40;99.90
46730;DHT22;32476;50.002;11.854;2023-02-05T18:34:31;-4.50;99.90
46730;DHT22;32476;50.002;11.854;2023-02-05T18:36:59;-4.60;99.90
46730;DHT22;32476;50.002;11.854;2023-02-05T18:39:25;-4.60;99.90
46730;DHT22;32476;50.002;11.854;2023-02-05T18:41:54;-4.70;99.90
46730;DHT22;32476;50.002;11.854;2023-02-05T18:44:25;-4.70;99.90
46730;DHT22;32476;50.002;11.854;2023-02-05T18:46:51;-4.80;99.90
46730;DHT22;32476;50.002;11.854;2023-02-05T18:49:18;-4.90;99.90
46730;DHT22;32476;50.002;11.854;2023-02-05T18:51:46;-4.90;99.90
46730;DHT22;32476;50.002;11.854;2023-02-05T18:54:12;-5.00;99.90
46730;DHT22;32476;50.002;11.854;2023-02-05T18:56:38;-5.10;99.90